createdAt,value
2016-08-21T00:00:12.021Z,1007.34
2016-08-21T00:05:09.682Z,1007.32
2016-08-21T00:10:07.464Z,1007.30
2016-08-21T00:15:05.163Z,1007.41
2016-08-21T00:20:02.852Z,1007.44
2016-08-21T00:25:01.472Z,1007.47
2016-08-21T00:29:59.335Z,1007.43
2016-08-21T00:34:57.015Z,1007.50
2016-08-21T00:39:54.811Z,1007.50
2016-08-21T00:44:52.525Z,1007.50
2016-08-21T00:49:50.251Z,1007.53
2016-08-21T00:54:47.916Z,1007.50
2016-08-21T00:59:46.460Z,1007.57
2016-08-21T01:04:43.894Z,1007.59
2016-08-21T01:09:43.615Z,1007.46
2016-08-21T01:14:40.917Z,1007.51
2016-08-21T01:19:38.754Z,1007.46
2016-08-21T01:24:36.439Z,1007.47
2016-08-21T01:29:34.171Z,1007.45
2016-08-21T01:34:31.985Z,1007.44
2016-08-21T01:39:29.580Z,1007.52
2016-08-21T01:44:27.307Z,1007.55
2016-08-21T01:49:25.195Z,1007.55
2016-08-21T01:54:22.900Z,1007.59
2016-08-21T01:59:20.584Z,1007.54
2016-08-21T02:04:18.338Z,1007.62
2016-08-21T02:09:16.109Z,1007.52
2016-08-21T02:14:13.532Z,1007.52
2016-08-21T02:19:11.162Z,1007.65
2016-08-21T02:24:08.874Z,1007.61
2016-08-21T02:29:06.494Z,1007.49
2016-08-21T02:34:04.252Z,1007.55
2016-08-21T02:39:02.007Z,1007.63
2016-08-21T02:43:59.530Z,1007.59
2016-08-21T02:48:57.312Z,1007.59
2016-08-21T02:53:55.106Z,1007.63
2016-08-21T02:58:52.887Z,1007.70
2016-08-21T03:03:50.614Z,1007.65
2016-08-21T03:08:48.381Z,1007.73
2016-08-21T03:13:46.052Z,1007.70
2016-08-21T03:18:43.901Z,1007.64
2016-08-21T03:23:41.584Z,1007.67
2016-08-21T03:28:39.480Z,1007.56
2016-08-21T03:33:37.104Z,1007.67
2016-08-21T03:38:34.704Z,1007.76
2016-08-21T03:43:32.302Z,1007.64
2016-08-21T03:48:30.066Z,1007.79
2016-08-21T03:53:27.779Z,1007.78
2016-08-21T03:58:25.534Z,1007.69
2016-08-21T04:03:23.312Z,1007.88
2016-08-21T04:08:20.981Z,1007.74
2016-08-21T04:13:18.610Z,1007.69
2016-08-21T04:18:16.344Z,1007.60
2016-08-21T04:23:14.059Z,1007.74
2016-08-21T04:28:11.566Z,1007.65
2016-08-21T04:33:09.235Z,1007.57
2016-08-21T04:38:07.070Z,1007.63
2016-08-21T04:43:04.885Z,1007.73
2016-08-21T04:48:02.708Z,1007.70
2016-08-21T04:53:00.682Z,1007.73
2016-08-21T04:57:58.319Z,1007.74
2016-08-21T05:02:56.030Z,1007.78
2016-08-21T05:07:53.702Z,1007.74
2016-08-21T05:12:51.817Z,1007.70
2016-08-21T05:17:49.400Z,1007.73
2016-08-21T05:22:47.204Z,1007.83
2016-08-21T05:27:44.910Z,1007.80
2016-08-21T05:32:42.706Z,1007.84
2016-08-21T05:37:40.497Z,1007.96
2016-08-21T05:42:38.302Z,1007.92
2016-08-21T05:47:36.066Z,1007.90
2016-08-21T05:52:34.163Z,1007.97
2016-08-21T05:57:31.971Z,1007.93
2016-08-21T06:02:29.725Z,1007.92
2016-08-21T06:07:27.648Z,1007.94
2016-08-21T06:12:25.426Z,1007.93
2016-08-21T06:17:23.026Z,1007.94
2016-08-21T06:22:20.941Z,1007.93
2016-08-21T06:27:18.763Z,1008.00
2016-08-21T06:32:16.535Z,1008.02
2016-08-21T06:37:14.301Z,1008.03
2016-08-21T06:42:12.030Z,1008.10
2016-08-21T06:47:09.739Z,1008.15
2016-08-21T06:52:07.375Z,1008.24
2016-08-21T06:57:05.014Z,1008.14
2016-08-21T07:02:02.718Z,1008.14
2016-08-21T07:07:00.387Z,1008.12
2016-08-21T07:11:58.141Z,1008.08
2016-08-21T07:16:55.859Z,1008.15
2016-08-21T07:21:53.733Z,1008.13
2016-08-21T07:26:51.505Z,1008.19
2016-08-21T07:31:49.264Z,1008.21
2016-08-21T07:36:47.109Z,1008.18
2016-08-21T07:41:44.712Z,1008.26
2016-08-21T07:46:42.302Z,1008.33
2016-08-21T07:51:39.908Z,1008.29
2016-08-21T07:56:37.786Z,1008.40
2016-08-21T08:01:35.301Z,1008.48
2016-08-21T08:06:32.938Z,1008.44
2016-08-21T08:11:30.843Z,1008.52
2016-08-21T08:16:28.793Z,1008.60
2016-08-21T08:21:26.517Z,1008.56
2016-08-21T08:26:24.307Z,1008.68
2016-08-21T08:31:22.030Z,1008.70
2016-08-21T08:36:19.752Z,1008.81
2016-08-21T08:41:17.415Z,1008.71
2016-08-21T08:46:15.156Z,1008.70
2016-08-21T08:51:12.846Z,1008.74
2016-08-21T08:56:10.830Z,1008.79
2016-08-21T09:01:08.594Z,1008.74
2016-08-21T09:06:06.131Z,1008.90
2016-08-21T09:11:03.738Z,1008.88
2016-08-21T09:16:01.412Z,1009.03
2016-08-21T09:20:59.171Z,1008.97
2016-08-21T09:25:56.682Z,1009.04
2016-08-21T09:30:54.410Z,1009.18
2016-08-21T09:35:52.107Z,1009.33
2016-08-21T09:40:49.761Z,1009.46
2016-08-21T09:45:47.292Z,1009.49
2016-08-21T09:50:45.008Z,1009.40
2016-08-21T09:55:42.600Z,1009.35
2016-08-21T10:00:40.988Z,1009.33
2016-08-21T10:05:38.491Z,1009.38
2016-08-21T10:10:36.194Z,1009.37
2016-08-21T10:15:33.860Z,1009.40
2016-08-21T10:20:31.497Z,1009.39
2016-08-21T10:25:29.227Z,1009.46
2016-08-21T10:30:26.844Z,1009.44
2016-08-21T10:35:24.638Z,1009.41
2016-08-21T10:40:22.262Z,1009.58
2016-08-21T10:45:19.836Z,1009.58
2016-08-21T10:50:17.497Z,1009.57
2016-08-21T10:55:15.206Z,1009.56
2016-08-21T11:00:12.986Z,1009.70
2016-08-21T11:05:10.811Z,1009.72
2016-08-21T11:10:08.422Z,1009.62
2016-08-21T11:15:06.123Z,1009.74
2016-08-21T11:20:03.663Z,1009.71
2016-08-21T11:25:01.461Z,1009.63
2016-08-21T11:29:59.174Z,1009.72
2016-08-21T11:34:56.687Z,1009.76
2016-08-21T11:39:54.171Z,1009.95
2016-08-21T11:44:51.921Z,1009.97
2016-08-21T11:49:49.477Z,1009.99
2016-08-21T11:54:47.278Z,1009.98
2016-08-21T11:59:45.006Z,1010.03
2016-08-21T12:04:42.863Z,1010.06
2016-08-21T12:09:40.563Z,1010.07
2016-08-21T12:14:38.262Z,1009.94
2016-08-21T12:19:36.040Z,1009.94
2016-08-21T12:24:33.861Z,1009.88
2016-08-21T12:29:31.397Z,1009.91
2016-08-21T12:34:28.963Z,1009.95
2016-08-21T12:39:26.638Z,1009.94
2016-08-21T12:44:24.407Z,1009.92
2016-08-21T12:49:21.808Z,1010.02
2016-08-21T12:54:19.450Z,1010.07
2016-08-21T12:59:17.296Z,1010.01
2016-08-21T13:04:14.710Z,1010.03
2016-08-21T13:09:12.327Z,1010.08
2016-08-21T13:14:09.974Z,1010.07
2016-08-21T13:19:07.738Z,1010.13
2016-08-21T13:24:05.414Z,1010.26
2016-08-21T13:29:02.884Z,1010.34
2016-08-21T13:34:00.717Z,1010.44
2016-08-21T13:38:58.481Z,1010.46
2016-08-21T13:43:56.022Z,1010.42
2016-08-21T13:48:53.671Z,1010.46
2016-08-21T13:53:51.172Z,1010.44
2016-08-21T13:58:48.814Z,1010.60
2016-08-21T14:03:46.420Z,1010.67
2016-08-21T14:08:44.024Z,1010.72
2016-08-21T14:13:41.697Z,1010.63
2016-08-21T14:18:39.347Z,1010.61
2016-08-21T14:23:37.041Z,1010.66
2016-08-21T14:28:34.775Z,1010.73
2016-08-21T14:33:32.426Z,1010.85
2016-08-21T14:38:29.975Z,1010.87
2016-08-21T14:43:27.466Z,1011.01
2016-08-21T14:48:25.314Z,1010.93
2016-08-21T14:53:22.925Z,1011.00
2016-08-21T14:58:20.477Z,1010.89
2016-08-21T15:03:18.228Z,1010.87
2016-08-21T15:08:15.725Z,1010.96
2016-08-21T15:13:13.225Z,1011.05
2016-08-21T15:18:10.967Z,1010.94
2016-08-21T15:23:08.702Z,1011.10
2016-08-21T15:28:06.388Z,1011.20
2016-08-21T15:33:05.022Z,1011.17
2016-08-21T15:38:02.690Z,1011.21
2016-08-21T15:43:00.187Z,1011.35
2016-08-21T15:47:57.843Z,1011.41
2016-08-21T15:52:55.458Z,1011.36
2016-08-21T15:57:52.955Z,1011.44
2016-08-21T16:02:50.753Z,1011.45
2016-08-21T16:07:48.174Z,1011.49
2016-08-21T16:12:45.841Z,1011.49
2016-08-21T16:17:43.345Z,1011.48
2016-08-21T16:22:40.979Z,1011.66
2016-08-21T16:27:38.739Z,1011.60
2016-08-21T16:32:36.358Z,1011.66
2016-08-21T16:37:34.000Z,1011.73
2016-08-21T16:42:31.548Z,1011.65
2016-08-21T16:47:29.133Z,1011.66
2016-08-21T16:52:26.783Z,1011.69
2016-08-21T16:57:24.403Z,1011.73
2016-08-21T17:02:22.004Z,1011.78
2016-08-21T17:07:19.616Z,1011.89
2016-08-21T17:12:17.349Z,1011.96
2016-08-21T17:17:14.806Z,1011.95
2016-08-21T17:22:12.402Z,1012.16
2016-08-21T17:27:10.130Z,1012.20
2016-08-21T17:32:09.246Z,1012.25
2016-08-21T17:37:06.463Z,1012.30
2016-08-21T17:42:04.310Z,1012.36
2016-08-21T17:47:01.892Z,1012.50
2016-08-21T17:51:59.565Z,1012.52
2016-08-21T17:56:57.316Z,1012.59
2016-08-21T18:01:54.887Z,1012.71
2016-08-21T18:06:52.629Z,1012.71
2016-08-21T18:11:50.121Z,1012.83
2016-08-21T18:16:48.596Z,1012.89
2016-08-21T18:21:46.027Z,1012.85
2016-08-21T18:26:43.984Z,1013.02
2016-08-21T18:31:41.785Z,1012.95
2016-08-21T18:36:39.374Z,1013.06
2016-08-21T18:41:37.048Z,1013.04
2016-08-21T18:46:34.803Z,1013.25
2016-08-21T18:51:32.457Z,1013.36
2016-08-21T18:56:30.018Z,1013.40
2016-08-21T19:01:27.645Z,1013.52
2016-08-21T19:06:25.222Z,1013.58
2016-08-21T19:11:23.351Z,1013.86
2016-08-21T19:16:20.746Z,1013.99
2016-08-21T19:21:18.398Z,1013.93
2016-08-21T19:26:16.525Z,1013.97
2016-08-21T19:31:13.863Z,1013.88
2016-08-21T19:36:11.501Z,1014.03
2016-08-21T19:41:09.376Z,1014.01
2016-08-21T19:46:07.113Z,1014.09
2016-08-21T19:51:04.855Z,1014.14
2016-08-21T19:56:02.460Z,1014.19
2016-08-21T20:01:00.088Z,1014.28
2016-08-21T20:05:57.842Z,1014.26
2016-08-21T20:10:55.534Z,1014.27
2016-08-21T20:15:53.123Z,1014.39
2016-08-21T20:20:50.719Z,1014.38
2016-08-21T20:25:48.303Z,1014.45
2016-08-21T20:30:45.994Z,1014.36
2016-08-21T20:35:43.767Z,1014.32
2016-08-21T20:40:41.351Z,1014.51
2016-08-21T20:45:39.293Z,1014.54
2016-08-21T20:50:36.840Z,1014.42
2016-08-21T20:55:34.510Z,1014.44
2016-08-21T21:00:32.302Z,1014.46
2016-08-21T21:05:30.573Z,1014.47
2016-08-21T21:10:27.992Z,1014.49
2016-08-21T21:15:25.746Z,1014.62
2016-08-21T21:20:23.364Z,1014.63
2016-08-21T21:25:21.083Z,1014.67
2016-08-21T21:30:18.765Z,1014.66
2016-08-21T21:35:16.440Z,1014.64
2016-08-21T21:40:14.191Z,1014.72
2016-08-21T21:45:11.852Z,1014.67
2016-08-21T21:50:09.742Z,1014.78
2016-08-21T21:55:07.380Z,1014.81
2016-08-21T22:00:05.181Z,1014.84
2016-08-21T22:05:02.818Z,1014.91
2016-08-21T22:10:00.393Z,1014.89
2016-08-21T22:14:57.985Z,1014.89
2016-08-21T22:19:55.664Z,1014.86
2016-08-21T22:24:53.342Z,1014.94
2016-08-21T22:29:51.036Z,1014.99
2016-08-21T22:34:48.664Z,1015.02
2016-08-21T22:39:46.213Z,1015.05
2016-08-21T22:44:43.905Z,1015.10
2016-08-21T22:49:41.513Z,1015.15
2016-08-21T22:54:39.132Z,1015.18
2016-08-21T22:59:36.844Z,1015.13
2016-08-21T23:04:34.420Z,1015.21
2016-08-21T23:09:32.203Z,1015.25
2016-08-21T23:14:29.907Z,1015.33
2016-08-21T23:19:27.559Z,1015.37
2016-08-21T23:24:25.325Z,1015.41
2016-08-21T23:29:22.879Z,1015.43
2016-08-21T23:34:20.519Z,1015.50
2016-08-21T23:39:18.176Z,1015.48
2016-08-21T23:44:15.921Z,1015.44
2016-08-21T23:49:13.503Z,1015.45
2016-08-21T23:54:11.217Z,1015.47
2016-08-21T23:59:09.034Z,1015.50
